createdAt,value
2023-02-09T00:00:12.196Z,17.70
2023-02-09T00:03:05.631Z,16.60
2023-02-09T00:05:34.865Z,19.90
2023-02-09T00:08:04.419Z,20.40
2023-02-09T00:10:33.314Z,21.60
2023-02-09T00:13:21.527Z,23.50
2023-02-09T00:16:04.698Z,23.00
2023-02-09T00:18:35.770Z,18.90
2023-02-09T00:21:08.100Z,14.70
2023-02-09T00:23:41.218Z,18.30
2023-02-09T00:26:12.439Z,24.50
2023-02-09T00:28:44.697Z,18.10
2023-02-09T00:31:14.745Z,22.10
2023-02-09T00:33:44.633Z,21.20
2023-02-09T00:36:15.579Z,18.80
2023-02-09T00:38:45.720Z,19.20
2023-02-09T00:41:16.584Z,16.90
2023-02-09T00:43:47.188Z,22.90
2023-02-09T00:46:17.127Z,23.60
2023-02-09T00:48:46.865Z,23.20
2023-02-09T00:51:16.021Z,21.90
2023-02-09T00:53:46.141Z,23.70
2023-02-09T00:58:46.438Z,18.00
2023-02-09T01:01:16.057Z,22.80
2023-02-09T01:03:45.550Z,18.00
2023-02-09T01:06:16.067Z,18.60
2023-02-09T01:08:45.757Z,18.80
2023-02-09T01:11:16.141Z,16.30
2023-02-09T01:13:46.907Z,20.20
2023-02-09T01:16:19.288Z,23.40
2023-02-09T01:18:50.404Z,19.10
2023-02-09T01:23:52.065Z,13.60
2023-02-09T01:26:22.793Z,17.20
2023-02-09T01:28:54.822Z,13.70
2023-02-09T01:31:35.621Z,12.80
2023-02-09T01:34:06.622Z,18.50
2023-02-09T01:36:36.030Z,15.40
2023-02-09T01:39:06.803Z,17.40
2023-02-09T01:41:38.520Z,14.30
2023-02-09T01:44:13.594Z,16.30
2023-02-09T01:46:45.228Z,19.90
2023-02-09T01:49:29.304Z,15.50
2023-02-09T01:52:04.139Z,13.80
2023-02-09T01:54:41.505Z,15.70
2023-02-09T01:57:15.924Z,15.00
2023-02-09T01:59:51.384Z,18.00
2023-02-09T02:02:23.707Z,16.70
2023-02-09T02:04:53.979Z,16.30
2023-02-09T02:07:53.025Z,14.30
2023-02-09T02:10:23.184Z,18.90
2023-02-09T02:12:55.304Z,18.60
2023-02-09T02:15:36.548Z,17.70
2023-02-09T02:18:37.569Z,15.80
2023-02-09T02:21:38.831Z,17.20
2023-02-09T02:24:46.687Z,15.00
2023-02-09T02:27:34.908Z,17.00
2023-02-09T02:30:40.844Z,11.50
2023-02-09T02:33:43.270Z,20.80
2023-02-09T02:36:54.647Z,13.90
2023-02-09T02:39:33.946Z,13.80
2023-02-09T02:42:28.897Z,11.60
2023-02-09T02:45:09.678Z,11.90
2023-02-09T02:47:43.739Z,16.80
2023-02-09T02:50:17.100Z,15.90
2023-02-09T02:52:51.159Z,15.50
2023-02-09T02:55:25.135Z,13.40
2023-02-09T02:58:01.189Z,14.00
2023-02-09T03:00:39.770Z,13.50
2023-02-09T03:03:16.875Z,14.60
2023-02-09T03:05:47.834Z,12.50
2023-02-09T03:08:19.087Z,12.40
2023-02-09T03:10:50.536Z,11.90
2023-02-09T03:13:35.665Z,12.30
2023-02-09T03:16:14.735Z,13.60
2023-02-09T03:19:06.104Z,11.20
2023-02-09T03:21:55.876Z,13.00
2023-02-09T03:24:37.831Z,10.20
2023-02-09T03:27:18.791Z,11.10
2023-02-09T03:29:53.304Z,15.70
2023-02-09T03:32:24.270Z,12.20
2023-02-09T03:34:56.387Z,14.70
2023-02-09T03:37:26.316Z,13.50
2023-02-09T03:39:56.048Z,10.40
2023-02-09T03:42:25.498Z,12.90
2023-02-09T03:44:55.858Z,13.80
2023-02-09T03:47:26.244Z,15.00
2023-02-09T03:49:55.960Z,14.70
2023-02-09T03:52:25.291Z,14.00
2023-02-09T03:54:54.750Z,12.50
2023-02-09T03:57:25.494Z,12.80
2023-02-09T03:59:55.012Z,13.80
2023-02-09T04:02:24.035Z,15.70
2023-02-09T04:04:54.021Z,18.50
2023-02-09T04:07:25.053Z,19.00
2023-02-09T04:09:54.279Z,19.80
2023-02-09T04:12:24.295Z,21.10
2023-02-09T04:14:53.271Z,20.70
2023-02-09T04:17:23.598Z,20.20
2023-02-09T04:19:55.259Z,17.60
2023-02-09T04:22:25.029Z,16.30
2023-02-09T04:24:54.303Z,13.50
2023-02-09T04:27:23.554Z,20.30
2023-02-09T04:29:53.910Z,23.50
2023-02-09T04:32:23.353Z,19.10
2023-02-09T04:34:53.054Z,15.20
2023-02-09T04:37:23.305Z,20.20
2023-02-09T04:39:53.069Z,19.70
2023-02-09T04:42:23.060Z,17.70
2023-02-09T04:47:22.488Z,14.30
2023-02-09T04:49:52.803Z,12.00
2023-02-09T04:52:22.607Z,12.50
2023-02-09T04:54:52.632Z,9.80
2023-02-09T04:57:40.867Z,10.40
2023-02-09T05:00:12.282Z,14.00
2023-02-09T05:02:41.813Z,18.60
2023-02-09T05:05:10.892Z,14.60
2023-02-09T05:07:39.921Z,16.10
2023-02-09T05:10:09.812Z,12.60
2023-02-09T05:12:41.583Z,13.40
2023-02-09T05:15:11.067Z,13.70
2023-02-09T05:17:41.086Z,14.10
2023-02-09T05:20:11.277Z,14.00
2023-02-09T05:25:09.548Z,18.90
2023-02-09T05:27:38.799Z,20.60
2023-02-09T05:30:08.568Z,22.30
2023-02-09T05:32:37.626Z,20.50
2023-02-09T05:35:08.439Z,19.60
2023-02-09T05:37:37.938Z,19.50
2023-02-09T05:40:07.500Z,20.90
2023-02-09T05:42:37.156Z,18.90
2023-02-09T05:45:06.882Z,27.30
2023-02-09T05:47:38.128Z,26.70
2023-02-09T05:50:08.107Z,17.30
2023-02-09T05:52:37.128Z,14.90
2023-02-09T05:55:06.632Z,21.20
2023-02-09T05:57:35.721Z,20.60
2023-02-09T06:00:08.771Z,15.80
2023-02-09T06:02:43.894Z,18.00
2023-02-09T06:05:12.757Z,23.80
2023-02-09T06:07:41.920Z,21.80
2023-02-09T06:10:11.118Z,20.00
2023-02-09T06:12:41.326Z,21.40
2023-02-09T06:17:39.736Z,45.80
2023-02-09T06:20:10.161Z,32.00
2023-02-09T06:22:39.224Z,38.70
2023-02-09T06:25:08.302Z,34.80
2023-02-09T06:27:37.043Z,23.70
2023-02-09T06:30:07.824Z,25.70
2023-02-09T06:32:36.563Z,30.40
2023-02-09T06:35:05.830Z,27.20
2023-02-09T06:37:35.280Z,30.20
2023-02-09T06:40:04.481Z,26.90
2023-02-09T06:42:44.300Z,43.50
2023-02-09T06:45:15.817Z,39.80
2023-02-09T06:47:46.289Z,31.20
2023-02-09T06:50:17.338Z,44.30
2023-02-09T06:52:46.013Z,35.10
2023-02-09T06:55:15.207Z,32.00
2023-02-09T06:57:44.382Z,31.70
2023-02-09T07:00:14.190Z,28.40
2023-02-09T07:02:44.030Z,28.50
2023-02-09T07:05:14.684Z,32.20
2023-02-09T07:07:44.582Z,30.00
2023-02-09T07:10:16.543Z,28.70
2023-02-09T07:12:45.550Z,23.00
2023-02-09T07:15:16.162Z,26.50
2023-02-09T07:17:44.852Z,27.80
2023-02-09T07:20:14.041Z,27.20
2023-02-09T07:22:42.837Z,27.90
2023-02-09T07:25:11.618Z,29.80
2023-02-09T07:27:44.618Z,30.30
2023-02-09T07:30:14.459Z,28.80
2023-02-09T07:32:43.211Z,34.60
2023-02-09T07:35:12.103Z,42.80
2023-02-09T07:37:40.943Z,38.10
2023-02-09T07:40:10.636Z,43.40
2023-02-09T07:42:39.420Z,39.50
2023-02-09T07:45:10.523Z,38.40
2023-02-09T07:47:39.310Z,33.60
2023-02-09T07:50:08.813Z,31.00
2023-02-09T07:52:37.710Z,31.80
2023-02-09T07:55:08.868Z,32.20
2023-02-09T07:57:39.685Z,32.30
2023-02-09T08:00:09.550Z,34.30
2023-02-09T08:02:45.828Z,30.60
2023-02-09T08:05:44.792Z,35.70
2023-02-09T08:08:14.928Z,30.80
2023-02-09T08:10:44.276Z,32.70
2023-02-09T08:13:14.087Z,27.10
2023-02-09T08:15:51.182Z,25.20
2023-02-09T08:18:32.856Z,25.00
2023-02-09T08:21:01.850Z,22.30
2023-02-09T08:23:39.500Z,22.50
2023-02-09T08:26:16.822Z,19.20
2023-02-09T08:28:47.426Z,17.40
2023-02-09T08:31:19.267Z,19.00
2023-02-09T08:33:50.015Z,24.80
2023-02-09T08:36:20.384Z,25.80
2023-02-09T08:38:50.613Z,29.20
2023-02-09T08:41:19.710Z,26.30
2023-02-09T08:43:50.141Z,23.40
2023-02-09T08:46:19.996Z,23.30
2023-02-09T08:48:52.830Z,18.00
2023-02-09T08:51:24.416Z,19.70
2023-02-09T08:53:53.793Z,23.60
2023-02-09T08:56:23.958Z,21.10
2023-02-09T08:58:52.789Z,19.40
2023-02-09T09:01:21.444Z,15.60
2023-02-09T09:03:53.860Z,13.10
2023-02-09T09:06:25.197Z,13.90
2023-02-09T09:08:54.290Z,12.60
2023-02-09T09:11:22.983Z,11.20
2023-02-09T09:13:52.593Z,12.70
2023-02-09T09:16:25.603Z,12.60
2023-02-09T09:18:56.717Z,13.30
2023-02-09T09:21:25.605Z,13.30
2023-02-09T09:23:54.286Z,14.70
2023-02-09T09:26:23.200Z,14.30
2023-02-09T09:28:52.483Z,13.60
2023-02-09T09:31:21.144Z,14.30
2023-02-09T09:33:49.956Z,12.10
2023-02-09T09:36:20.999Z,14.20
2023-02-09T09:38:49.787Z,13.80
2023-02-09T09:41:28.858Z,14.00
2023-02-09T09:43:58.011Z,12.60
2023-02-09T09:46:43.800Z,14.70
2023-02-09T09:49:20.374Z,15.50
2023-02-09T09:52:03.298Z,14.20
2023-02-09T09:54:35.606Z,14.40
2023-02-09T09:57:12.438Z,15.20
2023-02-09T09:59:42.344Z,13.90
2023-02-09T10:02:30.498Z,16.40
2023-02-09T10:05:15.361Z,14.20
2023-02-09T10:07:48.954Z,12.10
2023-02-09T10:10:47.342Z,12.80
2023-02-09T10:13:31.419Z,14.20
2023-02-09T10:16:00.168Z,12.90
2023-02-09T10:18:30.904Z,12.30
2023-02-09T10:21:11.309Z,13.30
2023-02-09T10:23:47.428Z,17.00
2023-02-09T10:26:27.521Z,13.20
2023-02-09T10:28:59.816Z,10.00
2023-02-09T10:31:36.694Z,13.50
2023-02-09T10:34:08.952Z,13.30
2023-02-09T10:36:48.125Z,12.80
2023-02-09T10:39:33.567Z,13.80
2023-02-09T10:42:22.254Z,12.40
2023-02-09T10:44:53.845Z,12.30
2023-02-09T10:47:25.476Z,10.70
2023-02-09T10:49:56.906Z,11.80
2023-02-09T10:52:31.240Z,10.80
2023-02-09T10:55:04.458Z,11.20
2023-02-09T10:57:39.090Z,14.60
2023-02-09T11:00:26.157Z,16.40
2023-02-09T11:03:01.901Z,15.80
2023-02-09T11:05:35.705Z,15.40
2023-02-09T11:08:11.072Z,16.50
2023-02-09T11:10:46.202Z,17.40
2023-02-09T11:13:26.264Z,16.20
2023-02-09T11:16:21.327Z,14.50
2023-02-09T11:19:01.435Z,15.90
2023-02-09T11:21:39.622Z,14.10
2023-02-09T11:24:17.427Z,15.60
2023-02-09T11:26:55.733Z,16.50
2023-02-09T11:29:32.718Z,15.80
2023-02-09T11:32:16.445Z,16.60
2023-02-09T11:35:01.040Z,13.60
2023-02-09T11:37:36.049Z,13.60
2023-02-09T11:40:04.744Z,12.90
2023-02-09T11:42:44.989Z,12.70
2023-02-09T11:45:43.375Z,14.90
2023-02-09T11:48:30.587Z,13.20
2023-02-09T11:51:23.845Z,14.90
2023-02-09T11:54:10.355Z,15.70
2023-02-09T11:56:44.773Z,14.90
2023-02-09T11:59:34.448Z,15.70
2023-02-09T12:02:18.399Z,14.40
2023-02-09T12:04:59.364Z,12.30
2023-02-09T12:07:38.086Z,13.20
2023-02-09T12:10:34.727Z,13.80
2023-02-09T12:13:50.201Z,12.00
2023-02-09T12:16:33.616Z,12.20
2023-02-09T12:19:04.643Z,13.20
2023-02-09T12:21:38.547Z,13.80
2023-02-09T12:24:38.198Z,14.20
2023-02-09T12:27:26.465Z,12.30
2023-02-09T12:29:55.225Z,11.90
2023-02-09T12:32:27.471Z,11.80
2023-02-09T12:34:56.186Z,11.60
2023-02-09T12:37:29.568Z,12.00
2023-02-09T12:40:18.613Z,13.60
2023-02-09T12:43:11.422Z,11.80
2023-02-09T12:45:45.061Z,10.00
2023-02-09T12:48:19.393Z,8.10
2023-02-09T12:50:55.805Z,8.00
2023-02-09T12:53:24.566Z,8.30
2023-02-09T12:56:26.838Z,6.80
2023-02-09T12:59:17.646Z,6.90
2023-02-09T13:02:08.156Z,7.30
2023-02-09T13:04:59.986Z,7.80
2023-02-09T13:07:34.596Z,7.20
2023-02-09T13:10:32.358Z,7.50
2023-02-09T13:13:12.821Z,8.40
2023-02-09T13:16:03.592Z,7.90
2023-02-09T13:19:04.990Z,10.00
2023-02-09T13:21:58.241Z,9.10
2023-02-09T13:24:54.067Z,7.90
2023-02-09T13:27:24.610Z,9.70
2023-02-09T13:29:57.900Z,8.20
2023-02-09T13:32:48.083Z,10.20
2023-02-09T13:35:23.835Z,8.70
2023-02-09T13:37:59.035Z,9.10
2023-02-09T13:40:31.442Z,9.00
2023-02-09T13:43:12.113Z,9.40
2023-02-09T13:45:49.451Z,9.30
2023-02-09T13:48:26.369Z,9.00
2023-02-09T13:50:57.529Z,8.90
2023-02-09T13:53:28.521Z,8.10
2023-02-09T13:56:00.439Z,7.90
2023-02-09T13:58:37.244Z,8.10
2023-02-09T14:01:09.904Z,9.10
2023-02-09T14:04:05.393Z,10.80
2023-02-09T14:06:46.254Z,9.70
2023-02-09T14:09:21.189Z,9.20
2023-02-09T14:12:09.751Z,10.90
2023-02-09T14:15:01.768Z,12.60
2023-02-09T14:17:39.193Z,12.70
2023-02-09T14:20:21.912Z,13.00
2023-02-09T14:22:59.576Z,13.30
2023-02-09T14:25:30.070Z,14.30
2023-02-09T14:27:59.226Z,13.00
2023-02-09T14:30:32.989Z,12.70
2023-02-09T14:33:03.678Z,13.90
2023-02-09T14:35:41.505Z,13.30
2023-02-09T14:38:36.944Z,11.50
2023-02-09T14:41:30.412Z,10.30
2023-02-09T14:44:21.735Z,11.60
2023-02-09T14:46:56.560Z,13.00
2023-02-09T14:49:26.371Z,13.70
2023-02-09T14:52:06.251Z,11.40
2023-02-09T14:54:50.261Z,10.70
2023-02-09T14:57:20.488Z,10.90
2023-02-09T14:59:50.705Z,12.00
2023-02-09T15:02:24.358Z,11.60
2023-02-09T15:04:56.784Z,11.60
2023-02-09T15:07:32.736Z,11.30
2023-02-09T15:10:07.414Z,11.90
2023-02-09T15:12:36.047Z,12.50
2023-02-09T15:15:05.120Z,12.20
2023-02-09T15:17:33.723Z,12.80
2023-02-09T15:20:02.313Z,13.40
2023-02-09T15:22:31.913Z,10.80
2023-02-09T15:25:00.491Z,12.40
2023-02-09T15:27:35.116Z,9.80
2023-02-09T15:30:17.733Z,11.00
2023-02-09T15:32:46.420Z,9.90
2023-02-09T15:35:17.551Z,10.10
2023-02-09T15:38:01.826Z,11.50
2023-02-09T15:41:03.489Z,12.20
2023-02-09T15:43:50.691Z,11.80
2023-02-09T15:46:38.542Z,13.50
2023-02-09T15:49:07.834Z,13.40
2023-02-09T15:51:39.044Z,13.50
2023-02-09T15:54:16.712Z,14.10
2023-02-09T15:56:45.625Z,12.70
2023-02-09T15:59:24.094Z,10.90
2023-02-09T16:01:53.116Z,10.40
2023-02-09T16:04:22.055Z,11.40
2023-02-09T16:06:53.389Z,14.00
2023-02-09T16:09:27.173Z,14.00
2023-02-09T16:11:55.806Z,10.90
2023-02-09T16:14:26.635Z,12.10
2023-02-09T16:16:55.560Z,11.70
2023-02-09T16:19:24.508Z,13.10
2023-02-09T16:21:59.693Z,13.60
2023-02-09T16:24:44.410Z,13.00
2023-02-09T16:27:31.030Z,12.30
2023-02-09T16:30:00.217Z,14.10
2023-02-09T16:32:28.925Z,14.20
2023-02-09T16:35:07.412Z,18.60
2023-02-09T16:37:45.807Z,27.40
2023-02-09T16:40:29.472Z,20.10
2023-02-09T16:43:00.109Z,20.90
2023-02-09T16:45:31.450Z,22.60
2023-02-09T16:48:00.207Z,19.20
2023-02-09T16:50:35.883Z,17.10
2023-02-09T16:53:17.463Z,18.60
2023-02-09T16:55:49.124Z,27.80
2023-02-09T16:58:18.837Z,26.10
2023-02-09T17:00:47.629Z,22.80
2023-02-09T17:03:20.311Z,17.90
2023-02-09T17:05:49.020Z,18.20
2023-02-09T17:08:26.690Z,21.10
2023-02-09T17:10:57.009Z,28.10
2023-02-09T17:13:26.633Z,27.00
2023-02-09T17:16:02.441Z,28.70
2023-02-09T17:18:44.686Z,46.60
2023-02-09T17:21:39.270Z,37.30
2023-02-09T17:24:18.414Z,42.20
2023-02-09T17:26:47.083Z,36.10
2023-02-09T17:29:18.342Z,42.20
2023-02-09T17:31:53.182Z,28.30
2023-02-09T17:34:27.426Z,17.50
2023-02-09T17:36:57.185Z,13.70
2023-02-09T17:39:26.193Z,29.20
2023-02-09T17:41:54.868Z,22.30
2023-02-09T17:44:44.568Z,31.60
2023-02-09T17:47:20.066Z,35.30
2023-02-09T17:49:48.884Z,29.70
2023-02-09T17:52:21.573Z,30.30
2023-02-09T17:54:51.274Z,25.50
2023-02-09T17:57:21.365Z,26.80
2023-02-09T17:59:50.089Z,19.00
2023-02-09T18:02:20.022Z,18.70
2023-02-09T18:04:49.083Z,19.30
2023-02-09T18:07:20.742Z,17.80
2023-02-09T18:09:49.351Z,16.90
2023-02-09T18:12:24.293Z,15.00
2023-02-09T18:14:53.343Z,15.90
2023-02-09T18:17:21.824Z,17.60
2023-02-09T18:19:50.417Z,19.40
2023-02-09T18:22:20.223Z,19.40
2023-02-09T18:24:50.234Z,29.10
2023-02-09T18:27:21.224Z,19.50
2023-02-09T18:29:49.871Z,27.10
2023-02-09T18:32:18.542Z,27.00
2023-02-09T18:34:47.258Z,30.40
2023-02-09T18:37:16.939Z,21.40
2023-02-09T18:39:46.927Z,26.20
2023-02-09T18:42:16.814Z,24.60
2023-02-09T18:44:45.573Z,17.40
2023-02-09T18:47:15.364Z,22.90
2023-02-09T18:49:44.358Z,24.60
2023-02-09T18:52:17.469Z,21.10
2023-02-09T18:54:46.052Z,17.60
2023-02-09T18:57:14.712Z,18.90
2023-02-09T18:59:47.643Z,19.00
2023-02-09T19:02:16.676Z,25.50
2023-02-09T19:04:45.485Z,39.60
2023-02-09T19:07:14.584Z,27.00
2023-02-09T19:09:46.128Z,22.80
2023-02-09T19:12:14.822Z,29.20
2023-02-09T19:14:46.063Z,30.20
2023-02-09T19:17:20.789Z,20.80
2023-02-09T19:19:50.089Z,22.40
2023-02-09T19:22:21.562Z,20.00
2023-02-09T19:24:53.201Z,26.60
2023-02-09T19:27:21.990Z,19.90
2023-02-09T19:29:55.611Z,23.00
2023-02-09T19:32:26.076Z,21.30
2023-02-09T19:34:54.803Z,19.70
2023-02-09T19:37:23.489Z,16.30
2023-02-09T19:40:05.491Z,19.00
2023-02-09T19:42:34.578Z,24.60
2023-02-09T19:45:03.263Z,25.60
2023-02-09T19:47:31.951Z,22.20
2023-02-09T19:50:00.942Z,17.10
2023-02-09T19:52:29.634Z,17.90
2023-02-09T19:54:58.833Z,21.50
2023-02-09T19:57:27.412Z,19.20
2023-02-09T19:59:56.400Z,22.60
2023-02-09T20:02:24.994Z,22.10
2023-02-09T20:04:53.774Z,21.20
2023-02-09T20:07:22.868Z,24.70
2023-02-09T20:09:52.679Z,28.80
2023-02-09T20:12:22.592Z,22.50
2023-02-09T20:14:54.366Z,17.40
2023-02-09T20:17:23.449Z,51.90
2023-02-09T20:19:52.147Z,30.00
2023-02-09T20:22:21.238Z,36.20
2023-02-09T20:24:49.924Z,40.30
2023-02-09T20:27:19.413Z,28.50
2023-02-09T20:29:48.114Z,30.10
2023-02-09T20:32:16.785Z,29.20
2023-02-09T20:34:45.588Z,28.20
2023-02-09T20:37:14.576Z,27.60
2023-02-09T20:39:43.358Z,27.80
2023-02-09T20:42:30.991Z,30.60
2023-02-09T20:45:18.319Z,24.60
2023-02-09T20:47:47.505Z,36.80
2023-02-09T20:50:18.147Z,29.10
2023-02-09T20:52:46.825Z,25.50
2023-02-09T20:55:15.814Z,22.00
2023-02-09T20:57:44.807Z,28.90
2023-02-09T21:00:14.105Z,29.40
2023-02-09T21:02:42.738Z,27.30
2023-02-09T21:05:12.089Z,35.20
2023-02-09T21:07:40.883Z,41.10
2023-02-09T21:10:13.118Z,29.10
2023-02-09T21:12:42.144Z,29.30
2023-02-09T21:15:10.943Z,29.00
2023-02-09T21:17:47.620Z,26.50
2023-02-09T21:20:17.215Z,29.10
2023-02-09T21:22:46.104Z,32.70
2023-02-09T21:25:14.789Z,29.60
2023-02-09T21:27:43.472Z,33.00
2023-02-09T21:30:12.835Z,34.40
2023-02-09T21:32:41.870Z,32.30
2023-02-09T21:35:11.503Z,26.30
2023-02-09T21:37:43.027Z,32.40
2023-02-09T21:40:13.304Z,32.90
2023-02-09T21:42:42.762Z,25.70
2023-02-09T21:45:11.859Z,30.30
2023-02-09T21:47:41.254Z,28.20
2023-02-09T21:50:13.221Z,29.30
2023-02-09T21:52:41.996Z,27.00
2023-02-09T21:55:10.888Z,28.60
2023-02-09T21:57:40.099Z,30.20
2023-02-09T22:00:10.047Z,26.40
2023-02-09T22:02:38.788Z,27.10
2023-02-09T22:05:08.702Z,28.90
2023-02-09T22:07:37.484Z,28.20
2023-02-09T22:10:07.200Z,31.90
2023-02-09T22:12:36.700Z,28.80
2023-02-09T22:15:06.309Z,29.20
2023-02-09T22:17:37.641Z,30.20
2023-02-09T22:20:07.127Z,29.00
2023-02-09T22:22:35.847Z,36.00
2023-02-09T22:25:05.052Z,31.10
2023-02-09T22:27:34.445Z,35.90
2023-02-09T22:30:03.337Z,28.70
2023-02-09T22:32:32.322Z,32.60
2023-02-09T22:35:01.212Z,32.20
2023-02-09T22:37:30.014Z,24.60
2023-02-09T22:39:59.102Z,45.20
2023-02-09T22:42:28.284Z,62.00
2023-02-09T22:44:57.196Z,57.30
2023-02-09T22:47:26.289Z,55.90
2023-02-09T22:49:55.480Z,42.70
2023-02-09T22:52:25.408Z,39.90
2023-02-09T22:54:54.703Z,41.30
2023-02-09T22:57:24.623Z,33.90
2023-02-09T22:59:53.940Z,30.90
2023-02-09T23:02:25.070Z,25.00
2023-02-09T23:04:53.962Z,37.90
2023-02-09T23:07:22.762Z,43.80
2023-02-09T23:09:51.958Z,41.40
2023-02-09T23:12:20.738Z,35.20
2023-02-09T23:14:50.034Z,38.60
2023-02-09T23:17:19.436Z,28.50
2023-02-09T23:19:48.462Z,26.90
2023-02-09T23:22:17.315Z,37.00
2023-02-09T23:24:46.110Z,36.20
2023-02-09T23:27:14.905Z,37.80
2023-02-09T23:29:44.776Z,33.90
2023-02-09T23:32:14.517Z,37.30
2023-02-09T23:34:43.515Z,37.50
2023-02-09T23:37:19.004Z,47.70
2023-02-09T23:39:58.394Z,49.60
2023-02-09T23:42:27.754Z,40.00
2023-02-09T23:44:57.921Z,33.10
2023-02-09T23:47:26.920Z,34.50
2023-02-09T23:49:57.639Z,29.10
2023-02-09T23:54:56.655Z,32.90
2023-02-09T23:57:26.174Z,26.90
2023-02-09T23:59:56.144Z,25.80
